Time;durP1;ratioP1;P1;durP2;ratioP2;P2;SDS_P1;SDS_P2;PMS_P1;PMS_P2;Temp;Humidity;BMP_temperature;BMP_pressure;BME280_temperature;BME280_humidity;BME280_pressure;Samples;Min_cycle;Max_cycle;Signal;HPM_P1;HPM_P2
2023/09/04 00:00:53;;;;;;;2.40;1.60;;;;;;;14.74;100.00;96864.81;5050285;28;24488;-73
2023/09/04 00:03:20;;;;;;;2.20;1.63;;;;;;;14.86;100.00;96870.22;5049803;28;24569;-73
2023/09/04 00:05:46;;;;;;;2.58;1.65;;;;;;;14.96;100.00;96871.31;5057945;28;24434;-73
2023/09/04 00:08:13;;;;;;;3.13;1.70;;;;;;;15.01;100.00;96869.25;5055484;28;24435;-73
2023/09/04 00:10:39;;;;;;;2.97;1.63;;;;;;;14.96;100.00;96860.88;5065670;28;24437;-73
2023/09/04 00:13:06;;;;;;;1.65;1.48;;;;;;;14.84;100.00;96866.88;5057127;28;24800;-73
2023/09/04 00:15:34;;;;;;;2.22;1.30;;;;;;;14.80;100.00;96868.00;5061596;28;24435;-73
2023/09/04 00:18:00;;;;;;;2.05;1.42;;;;;;;14.85;100.00;96863.34;5065932;28;25003;-73
2023/09/04 00:20:27;;;;;;;3.00;1.70;;;;;;;14.77;100.00;96862.03;5062120;28;24785;-73
2023/09/04 00:22:53;;;;;;;2.60;1.60;;;;;;;14.79;100.00;96859.31;5049736;28;24443;-73
2023/09/04 00:25:20;;;;;;;2.65;1.50;;;;;;;14.83;100.00;96854.75;5049597;28;25015;-73
2023/09/04 00:27:46;;;;;;;3.25;1.33;;;;;;;14.84;100.00;96859.88;5062799;28;24442;-73
2023/09/04 00:30:14;;;;;;;4.60;2.30;;;;;;;14.81;100.00;96856.63;5049719;28;24462;-73
2023/09/04 00:32:42;;;;;;;3.50;1.63;;;;;;;14.78;100.00;96860.25;5050427;28;24439;-73
2023/09/04 00:35:08;;;;;;;4.05;1.65;;;;;;;14.64;100.00;96850.69;5053407;28;24442;-73
2023/09/04 00:37:35;;;;;;;2.83;1.60;;;;;;;14.58;100.00;96853.69;5053413;28;24435;-73
2023/09/04 00:40:05;;;;;;;2.97;1.50;;;;;;;14.61;100.00;96855.25;5052675;28;24459;-73
2023/09/04 00:42:33;;;;;;;2.53;1.75;;;;;;;14.64;100.00;96852.44;5052581;28;24470;-73
2023/09/04 00:45:00;;;;;;;3.97;1.70;;;;;;;14.64;100.00;96855.06;5052982;28;24852;-73
2023/09/04 00:47:28;;;;;;;3.20;1.58;;;;;;;14.63;100.00;96854.22;5053278;28;24454;-73
2023/09/04 00:49:57;;;;;;;1.70;1.35;;;;;;;14.57;100.00;96851.16;5052689;28;24459;-73
2023/09/04 00:52:24;;;;;;;2.47;1.35;;;;;;;14.52;100.00;96843.63;5052800;28;24534;-73
2023/09/04 00:54:52;;;;;;;3.10;1.58;;;;;;;14.57;100.00;96846.78;5052718;28;24435;-73
2023/09/04 00:57:19;;;;;;;2.03;1.50;;;;;;;14.57;100.00;96840.72;5066456;28;24790;-73
2023/09/04 00:59:46;;;;;;;2.10;1.70;;;;;;;14.48;100.00;96847.31;5052739;28;24462;-73
2023/09/04 01:02:15;;;;;;;2.53;1.80;;;;;;;14.45;100.00;96837.91;5052455;28;24431;-73
2023/09/04 01:04:41;;;;;;;3.22;1.67;;;;;;;14.49;100.00;96843.78;5052379;28;24439;-73
2023/09/04 01:07:09;;;;;;;3.25;1.50;;;;;;;14.50;100.00;96840.28;5052407;28;24976;-73
2023/09/04 01:09:36;;;;;;;3.88;1.60;;;;;;;14.47;100.00;96849.09;5052620;28;24467;-73
2023/09/04 01:12:10;;;;;;;2.20;1.58;;;;;;;14.43;100.00;96841.56;5052631;28;24434;-72
2023/09/04 01:14:38;;;;;;;2.15;1.40;;;;;;;14.35;100.00;96842.03;5052914;28;24442;-73
2023/09/04 01:17:05;;;;;;;2.30;1.38;;;;;;;14.29;100.00;96837.19;5052358;28;24436;-73
2023/09/04 01:19:32;;;;;;;3.43;1.70;;;;;;;14.27;100.00;96842.47;5052218;28;24515;-73
2023/09/04 01:22:00;;;;;;;4.15;1.50;;;;;;;14.17;100.00;96841.38;5052127;28;24828;-72
2023/09/04 01:24:27;;;;;;;2.20;1.50;;;;;;;14.05;100.00;96834.25;5052797;28;24422;-72
2023/09/04 01:26:59;;;;;;;2.10;1.40;;;;;;;14.04;100.00;96836.03;5052118;28;24435;-73
2023/09/04 01:29:33;;;;;;;2.33;1.70;;;;;;;14.04;100.00;96835.19;5036220;28;24467;-72
2023/09/04 01:32:04;;;;;;;2.33;1.60;;;;;;;14.15;100.00;96834.56;5052096;28;24500;-73
2023/09/04 01:34:36;;;;;;;6.07;1.63;;;;;;;14.08;100.00;96839.28;5052498;28;24434;-73
2023/09/04 01:37:05;;;;;;;3.78;1.40;;;;;;;14.00;100.00;96834.53;5052269;28;24443;-72
2023/09/04 01:39:31;;;;;;;3.90;1.80;;;;;;;14.01;100.00;96832.78;5051963;28;24442;-72
2023/09/04 01:41:58;;;;;;;2.80;1.58;;;;;;;13.93;100.00;96835.00;5052060;28;24431;-72
2023/09/04 01:44:25;;;;;;;2.45;1.42;;;;;;;13.84;100.00;96833.78;5052090;28;24439;-73
2023/09/04 01:46:51;;;;;;;1.90;1.40;;;;;;;13.83;100.00;96828.66;5052181;28;24435;-72
2023/09/04 01:49:17;;;;;;;1.75;1.50;;;;;;;13.86;100.00;96826.72;5051486;28;25012;-73
2023/09/04 01:51:44;;;;;;;7.90;1.40;;;;;;;13.88;100.00;96827.47;5051644;28;24469;-72
2023/09/04 01:54:12;;;;;;;1.83;1.50;;;;;;;13.92;100.00;96834.16;5051741;28;24431;-73
2023/09/04 01:56:39;;;;;;;2.00;1.63;;;;;;;13.91;100.00;96827.28;5052134;28;24524;-73
2023/09/04 01:59:05;;;;;;;1.50;1.40;;;;;;;14.00;100.00;96821.53;5050347;28;24465;-73
2023/09/04 02:01:32;;;;;;;2.75;1.73;;;;;;;13.98;100.00;96822.56;5042916;28;24527;-73
2023/09/04 02:03:59;;;;;;;1.92;1.58;;;;;;;13.98;100.00;96827.78;5051656;28;24427;-73
2023/09/04 02:06:28;;;;;;;1.90;1.50;;;;;;;13.98;100.00;96817.34;5051719;28;24440;-73
2023/09/04 02:08:55;;;;;;;1.73;1.52;;;;;;;13.91;100.00;96816.03;5051422;28;24432;-73
2023/09/04 02:11:23;;;;;;;3.67;1.70;;;;;;;13.97;100.00;96813.88;5051077;28;24427;-72
2023/09/04 02:13:49;;;;;;;1.93;1.60;;;;;;;13.97;100.00;96816.50;5051398;28;24432;-73
2023/09/04 02:16:16;;;;;;;3.13;1.65;;;;;;;13.86;100.00;96812.84;5051344;28;24442;-73
2023/09/04 02:18:43;;;;;;;1.45;1.35;;;;;;;13.92;100.00;96822.91;5051695;28;24422;-73
2023/09/04 02:21:10;;;;;;;1.70;1.60;;;;;;;13.87;100.00;96819.72;5051045;28;24561;-73
2023/09/04 02:23:36;;;;;;;2.95;1.70;;;;;;;13.88;100.00;96819.66;5051293;28;24435;-72
2023/09/04 02:26:03;;;;;;;2.13;1.63;;;;;;;13.88;100.00;96824.03;5051350;28;24446;-74
2023/09/04 02:28:31;;;;;;;2.47;1.60;;;;;;;13.97;100.00;96824.31;5050675;28;25065;-73
2023/09/04 02:30:57;;;;;;;2.25;1.55;;;;;;;13.97;100.00;96820.88;5050976;28;24447;-72
2023/09/04 02:33:23;;;;;;;2.83;1.60;;;;;;;13.74;100.00;96819.63;5049344;28;25018;-72
2023/09/04 02:35:51;;;;;;;2.90;1.20;;;;;;;13.60;100.00;96810.00;5050114;28;24442;-72
2023/09/04 02:38:19;;;;;;;2.47;1.25;;;;;;;13.50;100.00;96814.09;5051102;28;24531;-72
2023/09/04 02:40:45;;;;;;;6.10;1.70;;;;;;;13.48;100.00;96818.53;5050998;28;24458;-72
2023/09/04 02:43:12;;;;;;;2.47;1.40;;;;;;;13.41;100.00;96812.00;5050452;28;24431;-72
2023/09/04 02:45:40;;;;;;;4.03;1.50;;;;;;;13.38;100.00;96807.81;5051079;28;24439;-72
2023/09/04 02:48:07;;;;;;;3.65;1.50;;;;;;;13.31;100.00;96806.47;5050991;28;24435;-73
2023/09/04 02:50:34;;;;;;;3.00;1.60;;;;;;;13.35;100.00;96805.41;5050579;28;25000;-72
2023/09/04 02:53:00;;;;;;;2.58;1.70;;;;;;;13.42;100.00;96804.13;5050105;28;24439;-72
2023/09/04 02:55:27;;;;;;;2.05;1.45;;;;;;;13.44;100.00;96815.28;5050043;28;24439;-73
2023/09/04 02:57:53;;;;;;;2.10;1.30;;;;;;;13.44;100.00;96796.22;5050591;28;24435;-72
2023/09/04 03:00:20;;;;;;;1.85;1.60;;;;;;;13.48;100.00;96808.13;5050620;28;24438;-73
2023/09/04 03:02:50;;;;;;;5.47;1.52;;;;;;;13.54;100.00;96807.78;5050481;28;24438;-73
2023/09/04 03:05:17;;;;;;;1.90;1.50;;;;;;;13.60;100.00;96810.00;5050256;28;24986;-72
2023/09/04 03:07:44;;;;;;;1.90;1.60;;;;;;;13.64;100.00;96819.31;5034478;28;25014;-73
2023/09/04 03:10:11;;;;;;;1.52;1.38;;;;;;;13.50;100.00;96812.34;5050271;28;24459;-73
2023/09/04 03:12:37;;;;;;;2.65;1.55;;;;;;;13.47;100.00;96817.72;5050514;28;24419;-73
2023/09/04 03:15:06;;;;;;;3.43;1.90;;;;;;;13.51;100.00;96815.75;5050541;28;24431;-73
2023/09/04 03:17:34;;;;;;;2.10;1.50;;;;;;;13.47;100.00;96804.69;5050345;28;24435;-73
2023/09/04 03:20:04;;;;;;;2.63;1.60;;;;;;;13.46;100.00;96805.63;5050291;28;24969;-73
2023/09/04 03:22:31;;;;;;;1.20;1.10;;;;;;;13.46;100.00;96802.16;5050042;28;25002;-73
2023/09/04 03:24:57;;;;;;;2.28;1.50;;;;;;;13.46;100.00;96796.97;5050583;28;24458;-73
2023/09/04 03:27:24;;;;;;;1.83;1.40;;;;;;;13.52;100.00;96807.03;5050261;28;24440;-72
2023/09/04 03:29:50;;;;;;;4.43;1.50;;;;;;;13.47;100.00;96806.47;5050385;28;24466;-72
2023/09/04 03:32:17;;;;;;;2.63;1.80;;;;;;;13.52;100.00;96809.63;5050263;28;24439;-72
2023/09/04 03:34:43;;;;;;;4.00;1.30;;;;;;;13.37;100.00;96816.56;5050392;28;24522;-73
2023/09/04 03:37:11;;;;;;;1.95;1.27;;;;;;;13.26;100.00;96813.72;5050348;28;24419;-73
2023/09/04 03:39:39;;;;;;;2.10;1.20;;;;;;;13.19;100.00;96807.16;5049710;28;24458;-72
2023/09/04 03:42:05;;;;;;;2.30;1.30;;;;;;;13.21;100.00;96810.53;5043528;28;24439;-73
2023/09/04 03:44:32;;;;;;;2.00;1.33;;;;;;;13.15;100.00;96811.69;5039650;28;24986;-73
2023/09/04 03:46:59;;;;;;;1.70;1.60;;;;;;;13.13;100.00;96808.34;5050523;28;24415;-73
2023/09/04 03:49:25;;;;;;;1.70;1.60;;;;;;;13.08;100.00;96808.59;5049937;28;24493;-73
2023/09/04 03:51:52;;;;;;;1.80;1.50;;;;;;;13.06;100.00;96812.22;5049886;28;24439;-72
2023/09/04 03:54:20;;;;;;;1.87;1.40;;;;;;;13.07;100.00;96817.34;5050297;28;24501;-72
2023/09/04 03:56:46;;;;;;;3.10;1.60;;;;;;;13.05;100.00;96815.72;5049249;28;24433;-73
2023/09/04 03:59:13;;;;;;;4.43;1.30;;;;;;;13.09;100.00;96819.88;5050134;28;24778;-73
2023/09/04 04:01:39;;;;;;;4.50;1.80;;;;;;;13.06;100.00;96823.47;5049738;28;24443;-72
2023/09/04 04:04:06;;;;;;;1.60;1.50;;;;;;;13.08;100.00;96824.19;5049872;28;24911;-73
2023/09/04 04:06:33;;;;;;;2.50;1.40;;;;;;;13.07;100.00;96824.28;5050186;28;24439;-73
2023/09/04 04:08:59;;;;;;;2.70;1.60;;;;;;;13.09;100.00;96832.88;5053355;28;24420;-72
2023/09/04 04:11:28;;;;;;;2.78;1.70;;;;;;;13.14;100.00;96843.00;5053638;28;24454;-72
2023/09/04 04:13:54;;;;;;;1.58;1.20;;;;;;;13.07;100.00;96834.69;5053597;28;24435;-72
2023/09/04 04:16:21;;;;;;;2.60;1.50;;;;;;;13.07;100.00;96830.34;5053606;28;24438;-72
2023/09/04 04:18:47;;;;;;;4.65;1.25;;;;;;;13.14;100.00;96835.19;5053231;28;24439;-72
2023/09/04 04:21:14;;;;;;;1.10;1.00;;;;;;;13.12;100.00;96834.44;5053140;28;24427;-73
2023/09/04 04:23:40;;;;;;;2.42;1.30;;;;;;;13.11;100.00;96830.16;5053590;28;24431;-73
2023/09/04 04:26:07;;;;;;;3.70;1.50;;;;;;;13.04;100.00;96835.69;5053446;28;24438;-73
2023/09/04 04:28:34;;;;;;;2.27;1.23;;;;;;;13.05;100.00;96826.13;5053652;28;24484;-73
2023/09/04 04:31:01;;;;;;;2.38;1.40;;;;;;;13.08;100.00;96832.00;5052845;28;24995;-72
2023/09/04 04:33:28;;;;;;;1.77;1.30;;;;;;;13.12;100.00;96831.84;5053310;28;24976;-73
2023/09/04 04:35:55;;;;;;;2.78;1.33;;;;;;;12.98;100.00;96843.03;5052838;28;24960;-73
2023/09/04 04:38:21;;;;;;;2.97;1.48;;;;;;;12.82;100.00;96835.22;5052890;28;24441;-73
2023/09/04 04:40:48;;;;;;;5.40;1.55;;;;;;;12.88;100.00;96844.44;5053252;28;24538;-72
2023/09/04 04:43:15;;;;;;;1.47;1.37;;;;;;;12.92;100.00;96838.16;5053049;28;24414;-72
2023/09/04 04:45:43;;;;;;;2.95;1.70;;;;;;;12.76;100.00;96835.56;5052982;28;25049;-72
2023/09/04 04:48:10;;;;;;;1.93;1.63;;;;;;;12.54;100.00;96841.06;5053341;28;24963;-73
2023/09/04 04:50:36;;;;;;;2.03;1.50;;;;;;;12.43;100.00;96839.06;5052954;28;24550;-73
2023/09/04 04:53:03;;;;;;;1.98;1.60;;;;;;;12.44;100.00;96840.72;5052969;28;25022;-72
2023/09/04 04:55:29;;;;;;;3.92;1.83;;;;;;;12.49;100.00;96838.69;5053015;28;24809;-72
2023/09/04 04:57:56;;;;;;;2.83;1.38;;;;;;;12.54;100.00;96835.88;5052902;28;24439;-72
2023/09/04 05:00:22;;;;;;;2.95;1.70;;;;;;;12.59;100.00;96839.91;5052859;28;24451;-72
2023/09/04 05:02:50;;;;;;;5.00;2.10;;;;;;;12.63;100.00;96835.38;5052770;28;24446;-72
2023/09/04 05:05:17;;;;;;;2.70;1.67;;;;;;;12.61;100.00;96837.22;5061334;28;24438;-72
2023/09/04 05:07:43;;;;;;;2.20;1.70;;;;;;;12.63;100.00;96837.13;5069279;28;24652;-72
2023/09/04 05:10:10;;;;;;;2.13;1.80;;;;;;;12.66;100.00;96829.19;5068807;28;24455;-73
2023/09/04 05:12:37;;;;;;;4.90;1.80;;;;;;;12.70;100.00;96831.53;5052377;28;24798;-72
2023/09/04 05:15:05;;;;;;;2.03;1.70;;;;;;;12.73;100.00;96831.34;5052415;28;24443;-72
2023/09/04 05:17:32;;;;;;;1.88;1.70;;;;;;;12.79;100.00;96819.78;5052850;28;24793;-72
2023/09/04 05:20:00;;;;;;;2.65;1.95;;;;;;;12.84;100.00;96820.38;5051888;28;24439;-73
2023/09/04 05:22:26;;;;;;;3.65;1.75;;;;;;;12.89;100.00;96817.50;5052227;28;24439;-72
2023/09/04 05:24:53;;;;;;;1.90;1.70;;;;;;;13.01;100.00;96819.44;5052450;28;24442;-72
2023/09/04 05:27:19;;;;;;;2.38;1.63;;;;;;;13.18;100.00;96827.13;5051940;28;25004;-73
2023/09/04 05:29:45;;;;;;;2.60;1.77;;;;;;;13.29;100.00;96827.41;5052071;28;24824;-73
2023/09/04 05:32:12;;;;;;;2.15;1.50;;;;;;;13.35;100.00;96814.94;5052129;28;24451;-73
2023/09/04 05:34:40;;;;;;;3.75;2.05;;;;;;;13.43;100.00;96816.22;5052022;28;24988;-73
2023/09/04 05:37:08;;;;;;;3.20;1.58;;;;;;;13.59;100.00;96812.72;5052182;28;25017;-73
2023/09/04 05:39:35;;;;;;;2.15;1.70;;;;;;;13.74;100.00;96811.81;5096288;22;24467;-70
2023/09/04 05:42:02;;;;;;;3.03;1.90;;;;;;;13.86;100.00;96818.06;5063439;28;24437;-70
2023/09/04 05:44:28;;;;;;;2.40;1.88;;;;;;;13.94;100.00;96808.88;5071994;28;24434;-72
2023/09/04 05:46:54;;;;;;;2.65;1.92;;;;;;;13.99;100.00;96809.44;5072129;28;24441;-70
2023/09/04 05:49:21;;;;;;;2.00;1.30;;;;;;;13.89;100.00;96813.50;5071727;28;24995;-70
2023/09/04 05:51:47;;;;;;;1.50;1.30;;;;;;;13.73;100.00;96810.16;5071385;28;24469;-72
2023/09/04 05:54:15;;;;;;;3.40;1.50;;;;;;;13.65;100.00;96805.41;5071723;28;24446;-73
2023/09/04 05:56:43;;;;;;;2.30;1.60;;;;;;;13.78;100.00;96810.72;5072034;28;24432;-73
2023/09/04 05:59:10;;;;;;;1.40;1.30;;;;;;;13.86;100.00;96813.69;5072081;28;24808;-72
2023/09/04 06:01:36;;;;;;;2.30;1.40;;;;;;;13.90;100.00;96814.34;5071341;28;24431;-72
2023/09/04 06:04:03;;;;;;;3.05;1.55;;;;;;;14.01;100.00;96817.97;5067999;28;24792;-71
2023/09/04 06:06:29;;;;;;;5.30;1.50;;;;;;;14.19;100.00;96816.03;5071756;28;24441;-72
2023/09/04 06:08:56;;;;;;;1.98;1.40;;;;;;;14.39;100.00;96816.63;5059909;28;24992;-72
2023/09/04 06:11:24;;;;;;;2.40;1.65;;;;;;;14.45;100.00;96821.44;5065279;28;24453;-72
2023/09/04 06:13:50;;;;;;;5.70;2.15;;;;;;;14.54;100.00;96818.31;5071617;28;24434;-72
2023/09/04 06:16:18;;;;;;;7.20;2.55;;;;;;;14.55;100.00;96819.97;5071558;28;24476;-71
2023/09/04 06:18:45;;;;;;;3.42;1.95;;;;;;;14.56;100.00;96819.03;5071052;28;24488;-73
2023/09/04 06:21:11;;;;;;;4.30;1.85;;;;;;;14.77;100.00;96816.88;5071058;28;24820;-72
2023/09/04 06:23:38;;;;;;;2.33;1.88;;;;;;;14.98;100.00;96823.34;5070808;28;24438;-72
2023/09/04 06:26:04;;;;;;;2.85;2.05;;;;;;;15.21;100.00;96810.59;5070722;28;24446;-73
2023/09/04 06:28:32;;;;;;;7.67;1.97;;;;;;;15.47;100.00;96814.13;5066471;28;24466;-73
2023/09/04 06:30:59;;;;;;;3.33;2.00;;;;;;;15.76;100.00;96814.84;5068879;28;24834;-73
2023/09/04 06:33:25;;;;;;;3.50;2.10;;;;;;;16.05;100.00;96809.41;5057028;28;24819;-72
2023/09/04 06:35:52;;;;;;;2.65;1.90;;;;;;;16.17;100.00;96812.03;5062446;28;24481;-74
2023/09/04 06:38:19;;;;;;;3.77;2.27;;;;;;;16.23;100.00;96810.75;5070459;28;24489;-75
2023/09/04 06:40:45;;;;;;;4.78;2.05;;;;;;;16.36;100.00;96818.59;5070778;28;24462;-71
2023/09/04 06:43:12;;;;;;;3.90;2.10;;;;;;;16.36;100.00;96815.97;5070792;28;24430;-73
2023/09/04 06:45:40;;;;;;;6.57;2.45;;;;;;;16.29;100.00;96812.13;5070255;28;25010;-73
2023/09/04 06:48:06;;;;;;;3.00;2.30;;;;;;;16.32;100.00;96815.34;5070394;28;24438;-72
2023/09/04 06:50:33;;;;;;;4.30;2.55;;;;;;;16.10;100.00;96812.56;5070516;28;24434;-73
2023/09/04 06:52:59;;;;;;;3.08;2.17;;;;;;;16.17;100.00;96814.63;5070105;28;24435;-72
2023/09/04 06:55:26;;;;;;;2.60;1.70;;;;;;;16.18;100.00;96810.25;5070828;28;24438;-71
2023/09/04 06:57:53;;;;;;;3.00;2.70;;;;;;;16.21;100.00;96820.50;5067040;28;24793;-72
2023/09/04 07:00:20;;;;;;;3.22;2.35;;;;;;;16.27;100.00;96820.03;5061766;28;25010;-72
2023/09/04 07:02:48;;;;;;;3.22;2.47;;;;;;;16.39;100.00;96810.56;5055850;28;24446;-72
2023/09/04 07:05:17;;;;;;;2.43;2.23;;;;;;;16.70;100.00;96815.28;5069171;28;25036;-72
2023/09/04 07:07:43;;;;;;;3.95;2.35;;;;;;;16.91;100.00;96820.81;5070269;28;24439;-72
2023/09/04 07:10:10;;;;;;;2.58;2.38;;;;;;;17.19;100.00;96810.97;5070364;28;24446;-72
2023/09/04 07:12:37;;;;;;;3.75;2.97;;;;;;;17.21;100.00;96814.31;5069773;28;25065;-70
2023/09/04 07:15:04;;;;;;;2.30;2.10;;;;;;;17.38;100.00;96811.28;5069934;28;24530;-72
2023/09/04 07:17:31;;;;;;;5.03;2.85;;;;;;;17.33;100.00;96810.78;5069959;28;24446;-71
2023/09/04 07:19:59;;;;;;;2.88;2.67;;;;;;;17.65;100.00;96812.84;5070252;28;24450;-72
2023/09/04 07:22:25;;;;;;;4.63;2.80;;;;;;;17.93;100.00;96808.97;5070157;28;24432;-70
2023/09/04 07:24:52;;;;;;;2.90;2.70;;;;;;;17.95;100.00;96812.34;5057689;28;24804;-72
2023/09/04 07:27:18;;;;;;;4.75;3.08;;;;;;;18.50;100.00;96805.47;5069201;28;24442;-72
2023/09/04 07:29:45;;;;;;;4.47;3.40;;;;;;;18.97;100.00;96803.50;5070075;28;24445;-72
2023/09/04 07:32:11;;;;;;;3.40;2.97;;;;;;;19.29;100.00;96805.34;5069877;28;25025;-72
2023/09/04 07:34:38;;;;;;;3.65;3.35;;;;;;;19.65;100.00;96801.50;5069950;28;24434;-73
2023/09/04 07:37:06;;;;;;;3.47;2.55;;;;;;;19.92;100.00;96806.28;5069906;28;24441;-73
2023/09/04 07:39:33;;;;;;;5.03;2.63;;;;;;;20.13;100.00;96806.22;5069686;28;24446;-73
2023/09/04 07:42:00;;;;;;;3.25;2.70;;;;;;;20.39;100.00;96797.91;5071121;28;24800;-72
2023/09/04 07:44:26;;;;;;;4.05;2.80;;;;;;;20.44;100.00;96803.63;5074437;28;24834;-79
2023/09/04 07:46:53;;;;;;;3.75;2.92;;;;;;;20.80;100.00;96810.16;5074156;28;24431;-75
2023/09/04 07:49:19;;;;;;;2.85;2.60;;;;;;;20.97;100.00;96811.31;5073791;28;24435;-76
2023/09/04 07:51:46;;;;;;;3.95;3.25;;;;;;;21.09;100.00;96812.03;5073886;28;24451;-76
2023/09/04 07:54:13;;;;;;;3.40;2.97;;;;;;;20.89;100.00;96811.16;5074469;28;24415;-76
2023/09/04 07:56:40;;;;;;;3.17;2.80;;;;;;;21.08;100.00;96805.94;5074214;28;24824;-76
2023/09/04 07:59:06;;;;;;;6.18;2.45;;;;;;;21.06;100.00;96804.38;5074538;28;24427;-76
2023/09/04 08:01:33;;;;;;;3.38;3.00;;;;;;;21.20;100.00;96802.19;5054044;28;24967;-76
2023/09/04 08:04:01;;;;;;;4.53;2.60;;;;;;;21.23;100.00;96809.00;5060729;28;24488;-76
2023/09/04 08:06:28;;;;;;;3.22;2.58;;;;;;;21.23;100.00;96809.81;5074103;28;24469;-77
2023/09/04 08:08:54;;;;;;;3.60;2.75;;;;;;;21.49;100.00;96811.97;5073628;28;24441;-76
2023/09/04 08:11:22;;;;;;;2.85;2.53;;;;;;;21.47;100.00;96814.75;5075453;28;24801;-77
2023/09/04 08:13:48;;;;;;;2.50;2.30;;;;;;;21.55;100.00;96819.31;5074055;28;24423;-77
2023/09/04 08:16:15;;;;;;;4.20;2.45;;;;;;;21.86;100.00;96808.59;5074050;28;24804;-75
2023/09/04 08:18:41;;;;;;;5.10;2.40;;;;;;;21.85;100.00;96809.59;5073737;28;24509;-77
2023/09/04 08:21:08;;;;;;;3.38;2.33;;;;;;;21.95;100.00;96805.97;5073793;28;24431;-76
2023/09/04 08:23:34;;;;;;;3.00;2.13;;;;;;;22.04;100.00;96811.38;5073900;28;24955;-76
2023/09/04 08:26:02;;;;;;;4.68;2.40;;;;;;;22.19;100.00;96810.78;5073346;28;24441;-77
2023/09/04 08:28:30;;;;;;;3.65;2.30;;;;;;;22.31;100.00;96806.16;5074307;28;24434;-76
2023/09/04 08:30:57;;;;;;;2.97;2.25;;;;;;;22.41;100.00;96806.97;5074922;28;24442;-78
2023/09/04 08:33:23;;;;;;;3.83;2.47;;;;;;;22.59;100.00;96811.50;5078502;28;24576;-80
2023/09/04 08:35:49;;;;;;;2.85;2.38;;;;;;;22.82;100.00;96806.66;5076251;28;24423;-77
2023/09/04 08:38:16;;;;;;;3.55;2.40;;;;;;;22.80;100.00;96812.06;5075665;28;25005;-77
2023/09/04 08:40:42;;;;;;;3.47;2.35;;;;;;;22.82;100.00;96802.22;5075587;28;24438;-77
2023/09/04 08:43:10;;;;;;;4.18;2.42;;;;;;;22.66;100.00;96800.22;5075336;28;24441;-78
2023/09/04 08:45:40;;;;;;;2.90;2.60;;;;;;;22.53;100.00;96799.69;5074234;28;24472;-76
2023/09/04 08:48:08;;;;;;;4.03;2.88;;;;;;;22.35;100.00;96801.44;5072855;28;24492;-75
2023/09/04 08:50:36;;;;;;;3.05;2.42;;;;;;;22.40;100.00;96805.31;5058538;28;24446;-75
2023/09/04 08:53:03;;;;;;;4.43;2.70;;;;;;;22.58;100.00;96801.91;5072089;28;24447;-76
2023/09/04 08:55:30;;;;;;;3.25;2.70;;;;;;;22.60;100.00;96799.97;5073354;28;24453;-74
2023/09/04 08:57:58;;;;;;;4.65;2.45;;;;;;;22.71;100.00;96797.94;5073432;28;24435;-76
2023/09/04 09:00:24;;;;;;;2.33;2.00;;;;;;;22.87;100.00;96792.03;5074974;28;25006;-78
2023/09/04 09:02:52;;;;;;;4.00;2.00;;;;;;;23.05;100.00;96791.25;5077574;28;24437;-78
2023/09/04 09:05:19;;;;;;;2.63;2.33;;;;;;;23.05;100.00;96788.63;5079786;28;24998;-78
2023/09/04 09:07:46;;;;;;;2.92;2.25;;;;;;;23.05;100.00;96797.38;5074321;28;24411;-77
2023/09/04 09:10:18;;;;;;;2.95;2.25;;;;;;;23.06;100.00;96800.84;5073899;28;24434;-77
2023/09/04 09:12:45;;;;;;;2.80;2.30;;;;;;;23.06;100.00;96801.66;5073875;28;24503;-77
2023/09/04 09:15:11;;;;;;;2.67;2.13;;;;;;;22.98;100.00;96804.22;5073843;28;24458;-77
2023/09/04 09:17:49;;;;;;;5.33;2.60;;;;;;;23.02;100.00;96804.78;5073663;28;24604;-78
2023/09/04 09:20:30;;;;;;;6.32;2.30;;;;;;;23.00;100.00;96801.47;5072682;28;24516;-77
2023/09/04 09:22:56;;;;;;;7.10;2.40;;;;;;;22.99;100.00;96807.69;5070602;28;24462;-78
2023/09/04 09:25:23;;;;;;;2.83;2.15;;;;;;;23.18;97.39;96797.03;5063467;28;24453;-78
2023/09/04 09:27:50;;;;;;;3.35;2.25;;;;;;;23.17;100.00;96798.00;5078684;28;25036;-78
2023/09/04 09:30:17;;;;;;;4.03;2.10;;;;;;;23.28;100.00;96800.41;5070391;28;24884;-78
2023/09/04 09:32:44;;;;;;;3.60;2.33;;;;;;;23.40;100.00;96801.88;5077150;28;24457;-76
2023/09/04 09:35:11;;;;;;;4.60;2.55;;;;;;;23.37;100.00;96802.16;5073289;28;24854;-78
2023/09/04 09:37:38;;;;;;;3.63;2.13;;;;;;;23.64;100.00;96801.25;5072337;28;24430;-78
2023/09/04 09:40:08;;;;;;;4.70;2.70;;;;;;;23.71;97.29;96798.03;5072342;28;24415;-78
2023/09/04 09:42:35;;;;;;;7.40;2.42;;;;;;;24.14;100.00;96794.56;5073323;28;24521;-76
2023/09/04 09:45:06;;;;;;;3.37;2.27;;;;;;;24.18;100.00;96790.63;5074608;28;24441;-75
2023/09/04 09:47:33;;;;;;;5.50;2.00;;;;;;;24.24;95.72;96792.63;5073073;28;24808;-76
2023/09/04 09:50:00;;;;;;;2.95;2.40;;;;;;;24.21;98.75;96786.78;5071595;28;24496;-75
2023/09/04 09:52:27;;;;;;;3.85;2.35;;;;;;;23.74;100.00;96782.69;5071510;28;24530;-76
2023/09/04 09:54:55;;;;;;;3.17;2.22;;;;;;;23.63;100.00;96775.78;5071897;28;24434;-76
2023/09/04 09:57:21;;;;;;;4.60;2.30;;;;;;;23.33;100.00;96774.38;5071960;28;24439;-77
2023/09/04 09:59:50;;;;;;;3.03;2.45;;;;;;;23.36;100.00;96782.00;5066991;28;24458;-76
2023/09/04 10:02:19;;;;;;;3.80;2.40;;;;;;;23.43;100.00;96776.94;5070072;28;24629;-77
2023/09/04 10:04:46;;;;;;;2.33;2.13;;;;;;;23.47;100.00;96772.16;5071031;28;24427;-76
2023/09/04 10:07:17;;;;;;;3.47;2.47;;;;;;;23.59;100.00;96760.41;5071647;28;24411;-76
2023/09/04 10:09:45;;;;;;;2.78;2.10;;;;;;;24.00;100.00;96766.84;5071493;28;24435;-74
2023/09/04 10:12:21;;;;;;;3.13;2.40;;;;;;;24.12;100.00;96759.47;5071354;28;24450;-75
2023/09/04 10:14:53;;;;;;;4.32;2.20;;;;;;;24.13;100.00;96761.13;5055740;28;24484;-76
2023/09/04 10:17:28;;;;;;;3.63;2.30;;;;;;;24.39;97.74;96763.78;5071436;28;25119;-74
2023/09/04 10:19:58;;;;;;;3.10;2.60;;;;;;;24.47;76.75;96761.16;5071403;28;24877;-75
2023/09/04 10:22:27;;;;;;;3.83;2.20;;;;;;;24.32;73.10;96754.75;5070787;28;24423;-74
2023/09/04 10:25:01;;;;;;;4.80;2.60;;;;;;;24.29;77.19;96753.28;5071155;28;24991;-74
2023/09/04 10:27:33;;;;;;;3.17;2.30;;;;;;;24.47;80.71;96747.91;5071460;28;24449;-74
2023/09/04 10:30:05;;;;;;;5.63;2.42;;;;;;;24.38;75.96;96754.13;5071350;28;24442;-75
2023/09/04 10:32:31;;;;;;;4.53;2.60;;;;;;;24.66;83.27;96753.94;5070598;28;24453;-76
2023/09/04 10:34:58;;;;;;;3.75;2.38;;;;;;;24.53;76.76;96747.28;5069622;28;25182;-76
2023/09/04 10:37:27;;;;;;;6.20;2.40;;;;;;;24.39;68.54;96751.34;5070298;28;24441;-73
2023/09/04 10:39:55;;;;;;;2.47;2.00;;;;;;;24.47;73.59;96747.09;5070502;28;24567;-73
2023/09/04 10:42:23;;;;;;;3.60;2.40;;;;;;;24.80;70.17;96740.09;5070592;28;24434;-73
2023/09/04 10:44:53;;;;;;;4.05;2.45;;;;;;;24.96;73.44;96744.63;5054530;28;24879;-74
2023/09/04 10:47:21;;;;;;;2.45;2.25;;;;;;;24.56;68.43;96746.97;5071400;28;24847;-73
2023/09/04 10:49:49;;;;;;;3.60;2.03;;;;;;;24.45;67.70;96747.25;5070663;28;24529;-75
2023/09/04 10:52:15;;;;;;;3.05;2.35;;;;;;;24.26;69.62;96743.00;5070996;28;24457;-75
2023/09/04 10:54:43;;;;;;;5.25;2.40;;;;;;;24.39;66.72;96742.59;5070758;28;24418;-72
2023/09/04 10:57:12;;;;;;;5.55;2.85;;;;;;;24.34;72.04;96734.28;5070897;28;24438;-72
2023/09/04 11:00:01;;;;;;;3.35;2.63;;;;;;;24.41;70.42;96734.50;5070651;28;24449;-73
2023/09/04 11:02:29;;;;;;;3.00;2.55;;;;;;;24.24;67.52;96731.72;5070535;28;24435;-72
2023/09/04 11:04:57;;;;;;;2.95;2.58;;;;;;;24.46;73.67;96725.06;5070577;28;25002;-70
2023/09/04 11:07:34;;;;;;;3.03;2.42;;;;;;;24.55;64.64;96725.97;5069995;28;24915;-76
2023/09/04 11:10:27;;;;;;;4.20;2.55;;;;;;;24.50;64.90;96721.13;5070632;28;24443;-69
2023/09/04 11:12:53;;;;;;;3.60;2.58;;;;;;;24.73;70.33;96713.41;5060131;28;25021;-71
2023/09/04 11:15:22;;;;;;;3.03;2.35;;;;;;;24.56;68.49;96714.38;5070354;28;24437;-71
2023/09/04 11:17:51;;;;;;;3.35;2.55;;;;;;;24.56;69.95;96706.41;5069970;28;24450;-72
2023/09/04 11:20:18;;;;;;;3.55;2.58;;;;;;;24.59;68.87;96706.09;5070467;28;24445;-71
2023/09/04 11:22:47;;;;;;;3.50;2.67;;;;;;;24.80;66.14;96709.13;5070121;28;24442;-74
2023/09/04 11:25:13;;;;;;;2.85;2.55;;;;;;;24.73;71.34;96701.97;5070273;28;24431;-72
2023/09/04 11:27:44;;;;;;;3.70;2.37;;;;;;;24.85;66.35;96698.06;5069615;28;24869;-73